Time;durP1;ratioP1;P1;durP2;ratioP2;P2;SDS_P1;SDS_P2;PMS_P1;PMS_P2;Temp;Humidity;BMP_temperature;BMP_pressure;BME280_temperature;BME280_humidity;BME280_pressure;Samples;Min_cycle;Max_cycle;Signal;HPM_P1;HPM_P2
2021/06/18 06:25:42;;;;;;;7.43;3.78;;;;;;;26.44;47.94;98753.81;5138636;27;20393;-81
2021/06/18 06:28:09;;;;;;;16.35;4.13;;;;;;;26.57;47.71;98752.25;5091377;28;20075;-80
2021/06/18 06:30:36;;;;;;;10.25;4.28;;;;;;;26.77;48.41;98755.91;5089715;28;20070;-80
2021/06/18 06:33:04;;;;;;;6.03;3.65;;;;;;;27.01;48.66;98744.66;5090438;28;20106;-80
2021/06/18 06:35:31;;;;;;;7.32;3.88;;;;;;;27.40;48.08;98756.56;5090102;28;20067;-80
2021/06/18 06:37:58;;;;;;;6.53;3.90;;;;;;;27.47;45.27;98755.03;5091107;28;20048;-80
2021/06/18 06:40:24;;;;;;;11.73;4.28;;;;;;;27.64;45.49;98759.19;5090203;28;20045;-80
2021/06/18 06:42:53;;;;;;;8.50;4.55;;;;;;;27.69;45.49;98740.41;5090728;28;20052;-80
2021/06/18 06:45:20;;;;;;;12.60;4.40;;;;;;;28.00;45.60;98752.94;5090028;28;20040;-81
2021/06/18 06:47:47;;;;;;;8.73;4.13;;;;;;;28.53;45.36;98749.59;5090560;28;20044;-81
2021/06/18 06:50:15;;;;;;;7.88;3.90;;;;;;;28.59;43.52;98744.72;5090438;28;20049;-81
2021/06/18 06:52:42;;;;;;;5.20;3.90;;;;;;;28.79;42.65;98760.22;5090211;28;20102;-80
2021/06/18 06:55:10;;;;;;;7.25;3.58;;;;;;;28.56;41.02;98748.13;5090146;28;20102;-81
2021/06/18 06:57:37;;;;;;;6.78;3.20;;;;;;;28.86;43.56;98765.34;5089663;28;20385;-82
2021/06/18 07:00:06;;;;;;;6.05;3.58;;;;;;;28.80;43.34;98761.03;5090324;28;20048;-81
2021/06/18 07:02:33;;;;;;;;;;;;;;;29.04;40.98;98758.78;5089747;28;20052;-81
2021/06/18 07:05:01;;;;;;;7.85;3.42;;;;;;;28.55;42.46;98758.47;5089847;28;19920;-81
2021/06/18 07:07:27;;;;;;;6.45;3.65;;;;;;;28.85;42.38;98753.34;5076458;28;20060;-81
2021/06/18 07:09:54;;;;;;;11.70;5.05;;;;;;;29.18;42.34;98769.06;5090251;28;20048;-81
2021/06/18 07:12:21;;;;;;;4.97;3.60;;;;;;;28.91;41.46;98760.47;5089862;28;20052;-81
2021/06/18 07:14:48;;;;;;;6.47;3.70;;;;;;;28.95;41.18;98752.28;5089274;28;20048;-81
2021/06/18 07:17:16;;;;;;;4.32;3.47;;;;;;;28.87;40.83;98767.03;5089400;28;20048;-81
2021/06/18 07:19:43;;;;;;;6.38;3.70;;;;;;;28.91;41.79;98763.28;5089396;28;20055;-81
2021/06/18 07:22:10;;;;;;;16.17;3.58;;;;;;;29.06;43.03;98761.25;5089447;28;20048;-82
2021/06/18 07:24:37;;;;;;;4.32;3.35;;;;;;;29.29;43.00;98756.50;5087272;28;20048;-81
2021/06/18 07:27:07;;;;;;;6.05;3.60;;;;;;;29.00;41.86;98759.75;5069001;28;20067;-82
2021/06/18 07:29:34;;;;;;;7.15;3.50;;;;;;;29.28;41.12;98752.91;5080260;28;20044;-82
2021/06/18 07:32:01;;;;;;;4.28;3.10;;;;;;;29.64;42.04;98765.09;5089506;28;20052;-82
2021/06/18 07:34:29;;;;;;;6.50;3.65;;;;;;;30.06;41.64;98757.25;5088980;28;20044;-82
2021/06/18 07:36:55;;;;;;;9.35;4.22;;;;;;;30.25;40.34;98754.19;5076550;28;20049;-81
2021/06/18 07:39:22;;;;;;;8.65;4.07;;;;;;;30.20;39.51;98748.75;5076125;28;20040;-82
2021/06/18 07:41:49;;;;;;;7.10;3.75;;;;;;;30.19;39.72;98739.47;5074368;28;20121;-81
2021/06/18 07:44:16;;;;;;;7.78;3.60;;;;;;;30.50;39.89;98744.22;5075325;28;20048;-81
2021/06/18 07:46:43;;;;;;;4.82;3.63;;;;;;;30.47;40.67;98738.41;5075822;28;20075;-82
2021/06/18 07:49:10;;;;;;;8.95;3.72;;;;;;;30.32;40.31;98720.03;5075697;28;20053;-82
2021/06/18 07:51:38;;;;;;;8.85;3.78;;;;;;;30.40;37.88;98746.44;5075761;28;20474;-82
2021/06/18 07:54:06;;;;;;;5.55;3.80;;;;;;;30.29;39.67;98735.56;5075643;28;20048;-82
2021/06/18 07:56:34;;;;;;;9.50;3.90;;;;;;;30.51;41.06;98747.81;5075312;28;20044;-82
2021/06/18 07:59:01;;;;;;;8.07;3.80;;;;;;;30.38;40.63;98737.53;5075471;28;20052;-82
2021/06/18 08:01:28;;;;;;;11.30;3.95;;;;;;;30.59;39.39;98723.75;5075512;28;20095;-81
2021/06/18 08:03:55;;;;;;;4.47;3.58;;;;;;;31.05;40.52;98736.31;5075394;28;20078;-81
2021/06/18 08:06:21;;;;;;;7.15;3.65;;;;;;;31.16;40.14;98746.03;5075217;28;20060;-81
2021/06/18 08:08:49;;;;;;;12.68;4.65;;;;;;;31.33;40.72;98736.78;5075406;28;20413;-81
2021/06/18 08:11:21;;;;;;;9.80;4.00;;;;;;;31.47;40.09;98749.81;5074043;28;20467;-82
2021/06/18 08:13:48;;;;;;;7.38;3.70;;;;;;;30.54;40.29;98750.78;5074675;28;20048;-82
2021/06/18 08:16:15;;;;;;;8.63;4.57;;;;;;;30.79;40.35;98739.09;5075117;28;20059;-82
2021/06/18 08:18:41;;;;;;;11.85;4.25;;;;;;;31.16;40.84;98732.00;5075230;28;20056;-81
2021/06/18 08:21:09;;;;;;;9.15;3.97;;;;;;;31.17;38.69;98736.47;5074936;28;20381;-82
2021/06/18 08:23:36;;;;;;;8.52;4.38;;;;;;;30.29;40.10;98732.75;5075447;28;20056;-81
2021/06/18 08:26:05;;;;;;;10.90;5.38;;;;;;;30.45;40.17;98721.91;5074278;28;20049;-79
2021/06/18 08:28:32;;;;;;;10.43;3.78;;;;;;;30.68;40.13;98735.78;5075368;28;20048;-80
2021/06/18 08:30:59;;;;;;;9.95;4.47;;;;;;;30.36;40.49;98712.63;5074511;28;20084;-80
2021/06/18 08:33:26;;;;;;;9.90;4.32;;;;;;;31.01;41.26;98727.75;5074879;28;20045;-80
2021/06/18 08:35:53;;;;;;;7.57;4.50;;;;;;;31.14;39.12;98719.47;5074503;28;20045;-81
2021/06/18 08:38:20;;;;;;;10.23;4.03;;;;;;;30.40;39.99;98722.09;5074445;28;20049;-80
2021/06/18 08:40:47;;;;;;;8.90;4.30;;;;;;;30.60;39.58;98720.59;5074843;28;20435;-80
2021/06/18 08:43:17;;;;;;;6.75;4.38;;;;;;;30.79;39.87;98723.09;5074344;28;20087;-81
2021/06/18 08:45:43;;;;;;;6.47;4.63;;;;;;;31.30;41.25;98712.19;5073540;28;20045;-81
2021/06/18 08:48:18;;;;;;;11.43;4.25;;;;;;;31.37;39.96;98720.88;5072844;28;20381;-80
2021/06/18 08:50:46;;;;;;;9.73;4.57;;;;;;;30.89;39.98;98713.50;5074246;28;20080;-81
2021/06/18 08:53:14;;;;;;;10.27;4.60;;;;;;;31.13;39.20;98713.00;5073912;28;20424;-81
2021/06/18 08:55:41;;;;;;;8.23;4.82;;;;;;;31.20;40.46;98713.34;5073665;28;20049;-81
2021/06/18 08:58:07;;;;;;;8.73;4.75;;;;;;;31.48;40.99;98700.88;5073510;28;20057;-81
2021/06/18 09:00:36;;;;;;;11.70;4.25;;;;;;;31.48;39.46;98720.53;5073843;28;20048;-81
2021/06/18 09:03:34;;;;;;;9.00;5.03;;;;;;;31.69;40.11;98715.88;5073696;28;20056;-81
2021/06/18 09:06:02;;;;;;;7.55;4.50;;;;;;;31.94;40.50;98719.72;5073160;28;20044;-81
2021/06/18 09:08:29;;;;;;;5.88;4.90;;;;;;;31.86;38.11;98711.34;5067104;28;20502;-81
2021/06/18 09:10:56;;;;;;;7.18;4.95;;;;;;;31.87;40.39;98712.97;5070343;28;20048;-81
2021/06/18 09:13:23;;;;;;;8.30;4.75;;;;;;;32.04;39.65;98701.66;5073953;28;20044;-81
2021/06/18 09:15:55;;;;;;;8.18;4.95;;;;;;;31.31;39.87;98716.63;5073942;28;20049;-81
2021/06/18 09:18:28;;;;;;;10.93;5.20;;;;;;;31.74;39.63;98695.19;5074197;28;20098;-82
2021/06/18 09:20:56;;;;;;;10.20;4.88;;;;;;;31.86;39.19;98714.97;5073688;28;20052;-81
2021/06/18 09:23:30;;;;;;;6.77;4.30;;;;;;;31.85;39.42;98718.13;5073934;28;20443;-82
2021/06/18 09:26:29;;;;;;;7.53;4.45;;;;;;;32.25;40.57;98717.78;5073354;28;20044;-82
2021/06/18 09:29:04;;;;;;;8.50;5.10;;;;;;;31.92;39.15;98704.38;5073910;28;20052;-81
2021/06/18 09:31:41;;;;;;;18.83;4.90;;;;;;;32.12;38.74;98711.22;5073267;28;20079;-82
2021/06/18 09:34:09;;;;;;;9.85;4.57;;;;;;;32.07;39.13;98717.84;5073897;28;20052;-82
2021/06/18 09:36:37;;;;;;;10.02;5.30;;;;;;;32.19;38.57;98714.34;5073642;28;20455;-82
2021/06/18 09:39:06;;;;;;;12.55;4.55;;;;;;;32.57;39.80;98709.78;5072548;28;20496;-82
2021/06/18 09:41:40;;;;;;;8.55;5.10;;;;;;;32.67;39.43;98700.97;5065946;28;20045;-82
2021/06/18 09:44:09;;;;;;;9.77;4.90;;;;;;;32.78;37.84;98701.38;5053493;28;20513;-82
2021/06/18 09:46:52;;;;;;;10.07;5.32;;;;;;;32.52;38.51;98698.72;5071257;28;20052;-82
2021/06/18 09:49:38;;;;;;;8.52;4.22;;;;;;;32.43;37.10;98705.25;5073236;28;20040;-82
2021/06/18 09:52:09;;;;;;;13.18;5.00;;;;;;;32.43;40.15;98693.19;5073568;28;20048;-82
2021/06/18 09:54:41;;;;;;;4.75;4.20;;;;;;;32.70;39.82;98694.66;5072498;28;20040;-82
2021/06/18 09:57:10;;;;;;;8.48;4.65;;;;;;;32.69;40.07;98690.19;5073023;28;20056;-82
2021/06/18 09:59:56;;;;;;;6.53;5.03;;;;;;;32.79;36.01;98680.47;5069407;28;20129;-82
2021/06/18 10:02:41;;;;;;;11.10;4.70;;;;;;;32.96;36.99;98702.84;5073986;28;20056;-82
2021/06/18 10:05:10;;;;;;;6.03;4.47;;;;;;;33.03;36.57;98688.19;5072625;28;20056;-81
2021/06/18 10:07:38;;;;;;;4.75;4.00;;;;;;;33.10;35.40;98691.28;5073651;28;20044;-81
2021/06/18 10:10:10;;;;;;;10.32;4.80;;;;;;;33.35;35.33;98694.22;5073184;28;20053;-82
2021/06/18 10:12:43;;;;;;;8.65;4.43;;;;;;;33.41;35.04;98706.06;5072238;28;20075;-82
2021/06/18 10:15:16;;;;;;;6.82;4.18;;;;;;;33.85;35.62;98704.38;5056563;28;20047;-82
2021/06/18 10:17:47;;;;;;;8.05;4.28;;;;;;;33.71;35.99;98689.81;5073221;28;20067;-82
2021/06/18 10:20:27;;;;;;;4.57;4.18;;;;;;;33.49;33.47;98697.50;5072623;28;20049;-82
2021/06/18 10:22:56;;;;;;;5.95;3.90;;;;;;;33.65;34.39;98680.75;5052994;28;20126;-82
2021/06/18 10:25:28;;;;;;;6.72;5.13;;;;;;;33.66;34.79;98690.00;5066840;28;20044;-82
2021/06/18 10:27:56;;;;;;;7.65;4.07;;;;;;;33.88;33.73;98700.06;5072259;28;20057;-81
2021/06/18 10:30:29;;;;;;;7.82;4.38;;;;;;;33.86;33.31;98682.69;5072445;28;20131;-82
2021/06/18 10:32:59;;;;;;;7.72;4.15;;;;;;;33.76;33.12;98698.03;5072167;28;20056;-82
2021/06/18 10:35:49;;;;;;;6.10;3.78;;;;;;;33.93;32.19;98685.72;5072776;28;20049;-82
2021/06/18 10:38:27;;;;;;;7.38;4.03;;;;;;;33.96;33.88;98684.19;5072985;28;20147;-82
2021/06/18 10:40:55;;;;;;;5.90;4.00;;;;;;;33.90;31.60;98692.06;5072554;28;20037;-82
2021/06/18 10:43:22;;;;;;;10.57;4.22;;;;;;;33.95;33.72;98674.91;5073392;28;20049;-82
2021/06/18 10:46:19;;;;;;;5.03;3.60;;;;;;;34.12;30.83;98689.94;5072618;28;20048;-82
2021/06/18 10:49:01;;;;;;;7.93;3.50;;;;;;;34.07;30.22;98687.34;4991748;28;20062;-82
2021/06/18 10:51:42;;;;;;;6.97;4.38;;;;;;;33.53;29.49;98672.28;5050917;28;20052;-82
2021/06/18 10:54:17;;;;;;;5.47;3.40;;;;;;;33.93;30.29;98682.06;5062092;28;20468;-82
2021/06/18 10:57:12;;;;;;;6.70;3.33;;;;;;;33.90;31.49;98677.97;5072918;28;20507;-83
2021/06/18 10:59:43;;;;;;;6.97;3.10;;;;;;;33.85;30.91;98678.22;5052908;28;20059;-83
2021/06/18 11:02:31;;;;;;;7.18;2.90;;;;;;;33.76;28.19;98667.03;5055108;28;20057;-82
2021/06/18 11:05:01;;;;;;;11.18;3.20;;;;;;;34.23;29.40;98657.25;5064197;28;20045;-82
2021/06/18 11:07:28;;;;;;;;;;;;;;;34.43;26.59;98669.56;5073024;28;20076;-82
2021/06/18 11:09:56;;;;;;;4.00;2.80;;;;;;;34.65;27.70;98653.28;5072724;28;19924;-82
2021/06/18 11:12:40;;;;;;;3.95;2.80;;;;;;;34.99;28.32;98642.56;5076222;28;20053;-83
2021/06/18 11:15:42;;;;;;;3.30;2.80;;;;;;;35.02;26.16;98667.25;5075759;28;20040;-83
2021/06/18 11:18:17;;;;;;;6.50;2.70;;;;;;;35.21;26.00;98650.44;5072214;28;20052;-83
2021/06/18 11:20:57;;;;;;;2.92;2.33;;;;;;;34.99;23.33;98634.09;5075975;28;20052;-83
2021/06/18 11:23:30;;;;;;;4.07;2.67;;;;;;;34.37;25.59;98656.88;5076012;28;20102;-83
2021/06/18 11:26:05;;;;;;;10.77;2.95;;;;;;;34.48;26.35;98631.84;5075392;28;20549;-83
2021/06/18 11:28:51;;;;;;;13.70;2.90;;;;;;;34.54;26.34;98647.34;5076275;28;20048;-83
2021/06/18 11:31:23;;;;;;;4.78;2.63;;;;;;;34.86;25.55;98645.47;5075515;28;20082;-82
2021/06/18 11:34:00;;;;;;;2.28;1.90;;;;;;;34.94;24.40;98651.31;5076484;28;20060;-82
2021/06/18 11:36:50;;;;;;;4.32;2.13;;;;;;;35.30;24.76;98650.31;5075684;28;20044;-82
2021/06/18 11:39:22;;;;;;;3.15;2.22;;;;;;;35.40;24.06;98648.97;5076116;28;20607;-83
2021/06/18 11:41:57;;;;;;;8.73;2.92;;;;;;;35.28;23.21;98638.56;5075952;28;20062;-83
2021/06/18 11:44:25;;;;;;;5.47;2.25;;;;;;;35.14;24.64;98632.47;5075594;28;20064;-82
2021/06/18 11:46:55;;;;;;;6.40;2.65;;;;;;;35.44;24.90;98639.38;5076454;28;20048;-83
2021/06/18 11:49:25;;;;;;;4.90;2.45;;;;;;;35.48;23.87;98638.66;5075439;28;20044;-83
2021/06/18 11:52:00;;;;;;;4.18;2.78;;;;;;;35.43;24.89;98640.56;5076046;28;20049;-82
2021/06/18 11:54:33;;;;;;;3.10;2.67;;;;;;;35.43;24.40;98628.44;5075239;28;20049;-83
2021/06/18 11:57:11;;;;;;;7.78;3.08;;;;;;;35.36;23.83;98626.25;5076335;28;20048;-83
2021/06/18 11:59:41;;;;;;;5.80;2.97;;;;;;;35.27;24.29;98642.56;5075449;28;20052;-83
2021/06/18 12:02:27;;;;;;;7.38;2.92;;;;;;;35.44;24.66;98633.72;5075816;28;20049;-83
2021/06/18 12:05:17;;;;;;;5.07;2.70;;;;;;;35.67;26.84;98623.75;5075218;28;20052;-83
2021/06/18 12:07:46;;;;;;;5.10;2.90;;;;;;;35.67;26.32;98627.44;5075769;28;20057;-82
2021/06/18 12:10:26;;;;;;;4.63;2.73;;;;;;;35.52;26.48;98631.09;5075249;28;20049;-83
2021/06/18 12:12:56;;;;;;;4.72;2.92;;;;;;;35.88;27.22;98629.19;5075528;28;20044;-82
2021/06/18 12:15:26;;;;;;;5.32;3.25;;;;;;;35.74;25.22;98627.63;5074306;28;20072;-83
2021/06/18 12:17:56;;;;;;;4.20;2.95;;;;;;;35.86;27.61;98620.22;5075717;28;20055;-83
2021/06/18 12:20:25;;;;;;;6.70;3.17;;;;;;;35.85;27.01;98610.94;5074883;28;20056;-82
2021/06/18 12:22:56;;;;;;;3.78;3.28;;;;;;;35.72;26.26;98634.81;5075272;28;20056;-83
2021/06/18 12:25:23;;;;;;;5.40;3.35;;;;;;;35.70;25.66;98634.38;5075162;28;20079;-82
2021/06/18 12:27:55;;;;;;;4.63;3.00;;;;;;;35.92;25.63;98622.41;5074995;28;20064;-83
2021/06/18 12:30:23;;;;;;;3.55;3.13;;;;;;;35.65;25.96;98624.13;5074747;28;20044;-83
2021/06/18 12:32:52;;;;;;;4.50;2.78;;;;;;;35.65;26.83;98626.97;5075144;28;20060;-83
2021/06/18 12:35:22;;;;;;;4.45;2.80;;;;;;;35.65;27.18;98614.84;5066274;28;20045;-83
2021/06/18 12:37:51;;;;;;;8.27;3.20;;;;;;;36.02;28.32;98623.03;5074662;28;20048;-83
2021/06/18 12:40:25;;;;;;;6.60;3.30;;;;;;;36.28;26.71;98628.91;5075344;28;20400;-82
2021/06/18 12:42:53;;;;;;;7.60;2.92;;;;;;;36.10;24.08;98616.34;5074441;28;20131;-83
2021/06/18 12:45:22;;;;;;;9.07;3.50;;;;;;;36.25;26.19;98615.47;5074428;28;20492;-83
2021/06/18 12:47:54;;;;;;;4.80;2.80;;;;;;;36.51;26.18;98619.69;5074605;28;20044;-83
2021/06/18 12:50:30;;;;;;;11.20;4.60;;;;;;;36.45;25.25;98610.69;5074604;28;20044;-83
2021/06/18 12:53:00;;;;;;;4.60;3.00;;;;;;;35.94;24.48;98620.03;5074246;28;20488;-83
2021/06/18 12:55:30;;;;;;;4.13;2.97;;;;;;;35.90;26.16;98599.31;5074421;28;20650;-83
2021/06/18 12:58:05;;;;;;;7.47;3.22;;;;;;;35.67;24.71;98589.84;5074761;28;20055;-83
2021/06/18 13:00:38;;;;;;;6.32;3.20;;;;;;;35.86;25.56;98589.13;5074235;28;20110;-83
2021/06/18 13:03:06;;;;;;;6.05;3.10;;;;;;;35.95;26.45;98606.69;5074844;28;20428;-84
2021/06/18 13:05:32;;;;;;;9.52;2.80;;;;;;;35.30;24.98;98590.16;5074524;28;20076;-83
2021/06/18 13:07:59;;;;;;;4.80;2.60;;;;;;;35.65;26.51;98589.41;5074119;28;20044;-84
2021/06/18 13:10:38;;;;;;;6.28;3.20;;;;;;;35.47;24.79;98589.81;5074229;28;20423;-82
2021/06/18 13:13:05;;;;;;;6.47;2.83;;;;;;;35.60;24.13;98591.31;5074144;28;20080;-82
2021/06/18 13:15:32;;;;;;;4.55;3.03;;;;;;;35.77;24.41;98583.63;5073459;28;20040;-82
2021/06/18 13:18:00;;;;;;;2.75;2.55;;;;;;;36.25;25.47;98600.50;5056874;28;20061;-82
2021/06/18 13:20:36;;;;;;;4.07;3.03;;;;;;;36.14;24.88;98595.41;5053363;28;20084;-82
2021/06/18 13:23:27;;;;;;;4.80;2.60;;;;;;;35.99;24.39;98596.28;5052872;28;20400;-81
2021/06/18 13:26:05;;;;;;;7.50;3.20;;;;;;;35.90;24.44;98598.50;5050067;28;20044;-82
2021/06/18 13:28:41;;;;;;;6.55;2.78;;;;;;;36.07;24.69;98580.31;5051884;28;20053;-81
2021/06/18 13:31:13;;;;;;;12.25;3.30;;;;;;;36.79;23.74;98596.81;5051971;28;20064;-83
2021/06/18 13:33:45;;;;;;;5.43;3.20;;;;;;;36.75;22.54;98592.25;5052897;28;20098;-81
2021/06/18 13:36:12;;;;;;;7.65;2.90;;;;;;;36.47;24.19;98574.31;5051301;28;20497;-81
2021/06/18 13:38:48;;;;;;;4.80;2.85;;;;;;;36.14;24.43;98580.47;5053657;28;20053;-81
2021/06/18 13:41:16;;;;;;;6.22;3.13;;;;;;;36.01;22.73;98578.97;5055358;28;20064;-82
2021/06/18 13:43:43;;;;;;;5.35;2.65;;;;;;;36.17;25.03;98579.72;5055966;28;20099;-81
2021/06/18 13:46:10;;;;;;;8.20;3.65;;;;;;;36.04;23.38;98566.91;5056281;28;20048;-81
2021/06/18 13:48:37;;;;;;;4.45;2.72;;;;;;;36.26;24.63;98571.03;5055659;28;20381;-81
2021/06/18 13:51:04;;;;;;;4.72;2.90;;;;;;;36.52;25.28;98567.53;5053552;28;20056;-82
2021/06/18 13:53:31;;;;;;;5.97;2.60;;;;;;;36.52;25.83;98572.38;5055929;28;20117;-81
2021/06/18 13:55:58;;;;;;;4.22;3.03;;;;;;;36.60;23.57;98577.81;5060094;28;20053;-82
2021/06/18 13:58:26;;;;;;;6.78;3.22;;;;;;;36.49;24.78;98557.81;5073549;28;20044;-82
2021/06/18 14:00:56;;;;;;;5.35;2.90;;;;;;;36.57;23.69;98561.59;5072907;28;20055;-82
2021/06/18 14:03:22;;;;;;;6.10;3.20;;;;;;;36.28;22.54;98561.00;5072824;28;20051;-82
2021/06/18 14:05:49;;;;;;;4.15;2.47;;;;;;;36.16;23.53;98575.25;5072468;28;20083;-81
2021/06/18 14:08:16;;;;;;;5.85;3.05;;;;;;;36.28;23.60;98552.53;5073214;28;20053;-82
2021/06/18 14:10:43;;;;;;;3.17;2.60;;;;;;;36.48;22.91;98559.00;5072424;28;20055;-81
2021/06/18 14:13:10;;;;;;;4.50;2.60;;;;;;;36.49;24.86;98565.47;5072288;28;20048;-82
2021/06/18 14:15:47;;;;;;;6.53;2.80;;;;;;;36.42;23.50;98566.16;5072712;28;20492;-81
2021/06/18 14:18:14;;;;;;;4.43;2.60;;;;;;;36.14;23.40;98549.34;5072573;28;20086;-81
2021/06/18 14:20:41;;;;;;;6.32;3.00;;;;;;;36.53;22.47;98560.69;5072747;28;20063;-81
2021/06/18 14:23:08;;;;;;;7.82;2.88;;;;;;;36.43;21.93;98558.47;5072692;28;20053;-81
2021/06/18 14:25:35;;;;;;;8.45;2.72;;;;;;;36.26;22.57;98554.03;5072453;28;20059;-82
2021/06/18 14:28:02;;;;;;;5.82;3.00;;;;;;;36.07;21.66;98552.81;5072419;28;20442;-82
2021/06/18 14:30:29;;;;;;;5.43;2.65;;;;;;;36.58;24.29;98545.41;5072134;28;20101;-81
2021/06/18 14:33:12;;;;;;;9.30;2.67;;;;;;;36.73;23.18;98538.00;5072689;28;20048;-81
2021/06/18 14:35:38;;;;;;;4.93;2.85;;;;;;;36.78;22.74;98549.06;5072607;28;20048;-82
2021/06/18 14:38:05;;;;;;;4.82;2.80;;;;;;;36.71;22.21;98541.22;5071906;28;20044;-82
2021/06/18 14:40:32;;;;;;;5.18;2.83;;;;;;;36.59;22.44;98547.88;5072486;28;20048;-82
2021/06/18 14:42:59;;;;;;;6.50;2.85;;;;;;;36.46;22.23;98533.06;5072783;28;20052;-82
2021/06/18 14:45:26;;;;;;;5.60;3.33;;;;;;;36.46;23.01;98535.88;5072908;28;20056;-81
2021/06/18 14:47:57;;;;;;;5.57;3.00;;;;;;;36.23;22.72;98527.31;5076110;28;20044;-81
2021/06/18 14:50:29;;;;;;;6.97;3.05;;;;;;;36.20;23.06;98538.56;5075198;28;20059;-81
2021/06/18 14:52:59;;;;;;;7.47;2.85;;;;;;;36.14;23.94;98538.03;5075293;28;20094;-84
2021/06/18 14:55:25;;;;;;;;;;;;;;;35.76;22.57;98542.44;5075613;28;20048;-82
2021/06/18 14:57:53;;;;;;;5.22;3.40;;;;;;;35.72;23.12;98533.03;5075807;28;19921;-81
2021/06/18 15:00:22;;;;;;;6.28;3.00;;;;;;;35.69;24.27;98531.75;5074505;28;20567;-81
2021/06/18 15:02:52;;;;;;;4.47;2.83;;;;;;;35.50;23.77;98532.56;5073541;28;20052;-81
2021/06/18 15:05:20;;;;;;;5.00;3.30;;;;;;;35.59;24.19;98518.19;5075860;28;20041;-82
2021/06/18 15:07:48;;;;;;;5.15;2.83;;;;;;;35.84;23.33;98535.75;5075615;28;20040;-81
2021/06/18 15:10:16;;;;;;;8.35;3.00;;;;;;;36.02;24.24;98526.88;5075042;28;20045;-81
2021/06/18 15:12:46;;;;;;;7.15;2.90;;;;;;;36.35;23.75;98520.72;5075954;28;20048;-82
2021/06/18 15:15:25;;;;;;;6.20;3.95;;;;;;;36.16;23.19;98515.84;5074302;28;20051;-83
2021/06/18 15:17:52;;;;;;;8.32;3.03;;;;;;;36.33;23.71;98525.94;5074055;28;20048;-82
2021/06/18 15:20:20;;;;;;;8.45;3.20;;;;;;;36.41;24.56;98504.25;5075467;28;20059;-82
2021/06/18 15:22:47;;;;;;;6.00;2.67;;;;;;;36.45;25.45;98517.28;5075289;28;20044;-82
2021/06/18 15:25:14;;;;;;;8.52;3.05;;;;;;;36.32;23.42;98512.97;5074980;28;20054;-82
2021/06/18 15:27:44;;;;;;;3.67;2.65;;;;;;;36.08;24.81;98512.03;5075056;28;20106;-82
2021/06/18 15:30:12;;;;;;;6.38;2.95;;;;;;;35.94;23.49;98503.28;5074770;28;20044;-82
2021/06/18 15:32:39;;;;;;;6.78;2.78;;;;;;;36.04;24.64;98513.16;5071891;28;20048;-83
2021/06/18 15:35:08;;;;;;;3.28;2.65;;;;;;;36.08;24.19;98511.25;5073672;28;20048;-81
2021/06/18 15:38:00;;;;;;;4.90;3.30;;;;;;;35.83;25.62;98524.81;5072961;28;20076;-80
2021/06/18 15:40:30;;;;;;;6.65;3.25;;;;;;;35.76;24.48;98506.47;5073576;28;20040;-82
2021/06/18 15:43:06;;;;;;;9.13;3.30;;;;;;;35.63;23.74;98497.31;5073626;28;20515;-82
2021/06/18 15:45:33;;;;;;;11.40;2.72;;;;;;;35.63;24.92;98510.63;5060846;28;20048;-81
2021/06/18 15:48:03;;;;;;;4.60;2.78;;;;;;;35.43;25.44;98495.63;5072700;28;20036;-82
2021/06/18 15:50:30;;;;;;;8.68;2.85;;;;;;;35.22;25.68;98484.63;5075684;28;20060;-81
2021/06/18 15:52:58;;;;;;;4.97;3.08;;;;;;;35.32;25.32;98501.03;5075579;28;20044;-81
2021/06/18 15:55:29;;;;;;;8.52;3.08;;;;;;;35.15;24.68;98487.25;5074795;28;20041;-81
2021/06/18 15:57:59;;;;;;;7.75;3.38;;;;;;;35.17;26.01;98476.41;5074513;28;20451;-81
2021/06/18 16:00:26;;;;;;;5.93;3.33;;;;;;;35.15;25.58;98490.88;5063911;28;20049;-82
2021/06/18 16:02:57;;;;;;;6.88;2.83;;;;;;;35.19;25.44;98485.34;5074722;28;20040;-82
2021/06/18 16:05:29;;;;;;;3.75;2.90;;;;;;;35.17;26.27;98474.41;5074387;28;20502;-84
2021/06/18 16:08:09;;;;;;;7.63;3.00;;;;;;;35.02;25.06;98492.16;5074496;28;20552;-82
2021/06/18 16:10:39;;;;;;;8.63;3.30;;;;;;;35.06;26.58;98491.09;5074122;28;20548;-81
2021/06/18 16:13:11;;;;;;;5.63;2.75;;;;;;;34.85;26.95;98477.25;5074959;28;20424;-80
2021/06/18 16:15:38;;;;;;;8.90;3.33;;;;;;;35.01;27.37;98465.94;5074042;28;20098;-82
2021/06/18 16:18:07;;;;;;;10.27;3.38;;;;;;;35.08;26.17;98477.44;5075118;28;20049;-82
2021/06/18 16:20:55;;;;;;;9.80;3.15;;;;;;;35.01;25.57;98465.94;5074688;28;20085;-83
2021/06/18 16:23:26;;;;;;;10.18;3.15;;;;;;;34.80;25.39;98474.69;5075177;28;20052;-82
2021/06/18 16:25:53;;;;;;;5.63;3.15;;;;;;;34.99;26.22;98473.13;5074299;28;20455;-82
2021/06/18 16:28:20;;;;;;;6.45;3.20;;;;;;;35.21;27.61;98489.44;5073915;28;20447;-81
2021/06/18 16:30:48;;;;;;;6.22;3.38;;;;;;;35.00;27.78;98480.44;5074166;28;20048;-81
2021/06/18 16:33:16;;;;;;;5.35;3.00;;;;;;;35.01;27.43;98465.94;5075088;28;20123;-81
2021/06/18 16:35:43;;;;;;;7.10;3.33;;;;;;;35.02;27.99;98484.53;5074217;28;20049;-81
2021/06/18 16:38:10;;;;;;;7.13;4.25;;;;;;;34.88;26.07;98473.72;5073555;28;20052;-82
2021/06/18 16:40:38;;;;;;;5.22;3.30;;;;;;;34.78;25.16;98473.41;5074737;28;20133;-81
2021/06/18 16:43:06;;;;;;;6.03;3.55;;;;;;;34.77;25.62;98471.78;5074287;28;20052;-81
2021/06/18 16:45:33;;;;;;;6.13;2.92;;;;;;;34.91;25.54;98469.31;5073471;28;20404;-81
2021/06/18 16:47:59;;;;;;;5.35;3.33;;;;;;;34.88;27.18;98470.03;5074074;28;20040;-81
2021/06/18 16:50:26;;;;;;;9.75;3.00;;;;;;;34.95;26.90;98484.34;5074317;28;20053;-81
2021/06/18 16:52:53;;;;;;;8.35;3.65;;;;;;;34.94;26.83;98471.41;5074056;28;20455;-81
2021/06/18 16:55:20;;;;;;;4.97;3.00;;;;;;;34.81;27.66;98487.63;5065246;28;20048;-81
2021/06/18 16:57:48;;;;;;;7.55;3.40;;;;;;;34.90;25.30;98485.44;5073989;28;20044;-81
2021/06/18 17:00:16;;;;;;;5.07;3.00;;;;;;;34.93;26.22;98481.09;5073783;28;20048;-81
2021/06/18 17:02:43;;;;;;;8.57;3.17;;;;;;;34.83;28.51;98498.56;5073551;28;20044;-83
2021/06/18 17:05:11;;;;;;;5.50;3.22;;;;;;;34.41;28.80;98491.38;5074012;28;20052;-83
2021/06/18 17:07:42;;;;;;;7.68;3.35;;;;;;;34.14;29.77;98485.34;5073358;28;20045;-83
2021/06/18 17:10:09;;;;;;;5.78;3.40;;;;;;;33.77;30.18;98476.19;5072788;28;20143;-83
2021/06/18 17:13:12;;;;;;;7.57;3.63;;;;;;;33.51;31.75;98472.59;5072565;28;20049;-82
2021/06/18 17:15:43;;;;;;;16.80;4.15;;;;;;;33.36;31.27;98481.75;5047030;28;20056;-81
2021/06/18 17:18:10;;;;;;;13.45;9.40;;;;;;;33.19;30.53;98496.06;5073515;28;20499;-82
2021/06/18 17:20:37;;;;;;;11.27;4.68;;;;;;;33.13;31.53;98501.13;5073111;28;20114;-81
2021/06/18 17:23:04;;;;;;;8.27;3.60;;;;;;;32.79;31.65;98483.47;5072403;28;20056;-82
2021/06/18 17:25:31;;;;;;;4.57;3.40;;;;;;;32.54;31.93;98502.28;5072697;28;20087;-82
2021/06/18 17:27:58;;;;;;;5.32;3.30;;;;;;;32.24;33.56;98514.47;5072525;28;20131;-83
2021/06/18 17:30:25;;;;;;;8.07;3.33;;;;;;;32.01;34.20;98522.44;5072181;28;20045;-80
2021/06/18 17:32:53;;;;;;;6.70;3.28;;;;;;;31.85;34.47;98524.22;5072849;28;20049;-81
2021/06/18 17:35:20;;;;;;;5.38;3.38;;;;;;;31.88;35.10;98529.97;5072262;28;20053;-81
2021/06/18 17:37:47;;;;;;;7.88;3.90;;;;;;;31.86;36.44;98535.13;5072654;28;20119;-82
2021/06/18 17:40:16;;;;;;;4.95;3.22;;;;;;;31.26;38.53;98548.34;5072196;28;20059;-81
2021/06/18 17:42:43;;;;;;;19.27;5.13;;;;;;;31.22;38.90;98542.59;5059489;28;20488;-82
2021/06/18 17:45:10;;;;;;;9.23;4.70;;;;;;;30.87;39.36;98530.63;5072041;28;20109;-81
2021/06/18 17:47:37;;;;;;;10.68;3.85;;;;;;;30.62;40.46;98515.53;5072125;28;20056;-81
2021/06/18 17:50:07;;;;;;;5.18;3.70;;;;;;;30.51;42.85;98529.91;5072532;28;20404;-81
2021/06/18 17:52:35;;;;;;;6.80;3.53;;;;;;;30.44;43.02;98537.16;5072662;28;20057;-82
2021/06/18 17:55:05;;;;;;;12.60;3.92;;;;;;;30.18;43.25;98522.00;5072163;28;20056;-82
2021/06/18 17:57:32;;;;;;;9.40;3.50;;;;;;;30.28;42.19;98539.66;5072694;28;20110;-81
2021/06/18 17:59:59;;;;;;;8.23;4.20;;;;;;;30.13;42.78;98539.00;5072243;28;20101;-81
2021/06/18 18:02:26;;;;;;;5.25;3.47;;;;;;;30.11;43.58;98530.09;5071596;28;20059;-81
2021/06/18 18:04:58;;;;;;;8.55;4.13;;;;;;;29.66;44.71;98525.59;5072200;28;20052;-81
2021/06/18 18:07:28;;;;;;;9.10;3.85;;;;;;;29.64;44.64;98535.47;5072044;28;20110;-82
2021/06/18 18:09:54;;;;;;;7.63;3.58;;;;;;;29.74;44.49;98540.75;5072223;28;20052;-81
2021/06/18 18:12:21;;;;;;;8.50;3.95;;;;;;;29.56;45.52;98539.88;5071815;28;20059;-80
2021/06/18 18:14:50;;;;;;;7.35;4.47;;;;;;;29.65;46.39;98556.72;5071244;28;20051;-80